To NAV CANADA Home Page Login to a new session Search on AWWS site Feedback and Comments Disclaimer Vers la page française équivalente Tips FAQ What's new on the site To the Forecasts and Observations / NOTAM section To "File a Flight Plan" website Publications and other links Update of the User's profile FIC Telephone Numbers My Weather Data Folder Route Weather Data Regional Weather Data Local Weather Data To the Forecasts and Observations / NOTAM section
Request Generated 02/08/2016 at 22:49:10 UTC . Weather information available at that time is displayed.

METAR/TAF

DEASE LAKE/BC    (show WxCam)

SPECI CYDL 082217Z AUTO VRB02KT 9SM OVC050 M02/M03 A2995 RMK SLP177=
METAR CYDL 082200Z AUTO 00000KT 9SM -SN FEW019 OVC055 M03/M03 A2995
RMK SLP180=
SPECI CYDL 082121Z AUTO VRB03KT 7SM -SN FEW018 SCT034 BKN041 OVC050
M02/M02 A2995 RMK SLP180=
SPECI CYDL 082105Z AUTO VRB02KT 5SM -SN SCT018 BKN037 BKN048 OVC055
M03/M03 A2995 RMK SLP181=
METAR CYDL 082100Z AUTO VRB03KT 9SM -SN FEW018 SCT034 BKN040 OVC055
M03/M03 A2996 RMK SLP182=
SPECI CYDL 082044Z AUTO 06005KT 6SM -SN BKN040 BKN048 OVC055 M03/M03
A2996 RMK SLP185=
SPECI CYDL 082040Z AUTO 07005KT 010V080 5SM -SN BKN038 OVC049 M03/M03
A2996 RMK SLP185=
SPECI CYDL 082029Z AUTO 06006KT 6SM -SN OVC036 M03/M03 A2997 RMK
SLP187=
SPECI CYDL 082022Z AUTO 06006KT 050V110 3SM -SN BKN036 OVC044 M03/M04
A2997 RMK SLP188=
SPECI CYDL 082015Z AUTO 09005KT 030V110 2 1/4SM -SN OVC030 M04/M04
A2998 RMK SLP190=
SPECI CYDL 082009Z AUTO 04003KT 030V120 3SM -SN OVC030 M04/M04 A2998
RMK SLP191=
METAR CYDL 082000Z AUTO 09004KT 010V120 1 3/4SM -SN BKN028 OVC035
M04/M04 A2998 RMK SLP190=

TAF AMD CYDL 082046Z 0820/0903 07005KT P6SM SCT025 OVC050 TEMPO
0820/0903 3SM -SN OVC025
BECMG 0822/0824 18006KT
RMK FCST BASED ON AUTO OBS. NXT FCST BY 090000Z=
Your time UTC time
Weather data provided by Environment Canada and NAV CANADA